Qualicum Beach, Canada
Current Conditions -  °F | °C
As of 6:00 AM on Monday 26 Jan 2015 (Local Time) from CYQQ Reporting Station
Overcast Overcast  
Wind Chill: 46°   Ceiling: 700
Heat Index: 48°   Visibility: 7mi
Dew Point: 46°   Wind: 5mph
Humidity: 93%   Direction: 220°SW
Pressure: 29.91"   Gusts: NA
Location:  49.35°N, 124.44°W
Report Text: CYQQ 261400Z 22004KT 7SM BKN007 OVC017 09/08 A2991 RMK SF7SC1 SLP130
Loading
Personal Weather Stations






























Interactive Weather Map New forecast layout! Learn more

10-Day Weather Forecast

Advertisements
Track Severe Weather on mobile